Time;durP1;ratioP1;P1;durP2;ratioP2;P2;SDS_P1;SDS_P2;PMS_P1;PMS_P2;Temp;Humidity;BMP_temperature;BMP_pressure;BME280_temperature;BME280_humidity;BME280_pressure;Samples;Min_cycle;Max_cycle;Signal;HPM_P1;HPM_P2
2022/05/24 00:00:36;;;;;;;12.70;9.13;;;13.50;99.90;;;;;;4988775;28;20055;-41
2022/05/24 00:03:02;;;;;;;16.60;10.55;;;13.40;99.90;;;;;;4989407;28;20043;-41
2022/05/24 00:05:30;;;;;;;17.77;11.38;;;13.40;99.90;;;;;;4990342;28;20097;-41
2022/05/24 00:07:55;;;;;;;14.32;10.13;;;13.40;99.90;;;;;;4973647;28;20042;-41
2022/05/24 00:10:27;;;;;;;17.63;10.68;;;13.40;99.90;;;;;;4989246;28;20061;-41
2022/05/24 00:12:53;;;;;;;14.23;9.60;;;13.40;99.90;;;;;;4995899;28;20043;-41
2022/05/24 00:15:23;;;;;;;13.88;10.15;;;13.40;99.90;;;;;;4989566;28;20523;-41
2022/05/24 00:18:08;;;;;;;15.75;9.70;;;13.30;99.90;;;;;;4974204;28;20042;-41
2022/05/24 00:20:40;;;;;;;11.48;8.70;;;13.30;99.90;;;;;;4989449;28;20100;-41
2022/05/24 00:23:07;;;;;;;13.20;9.48;;;13.30;99.90;;;;;;4989103;28;20097;-41
2022/05/24 00:25:36;;;;;;;15.02;8.50;;;13.30;99.90;;;;;;4988029;28;20078;-41
2022/05/24 00:28:04;;;;;;;13.65;9.20;;;13.20;99.90;;;;;;4973684;28;20046;-41
2022/05/24 00:30:30;;;;;;;14.23;8.18;;;13.30;99.90;;;;;;4989354;28;20133;-41
2022/05/24 00:32:56;;;;;;;11.60;7.05;;;13.20;99.90;;;;;;4995245;28;20133;-41
2022/05/24 00:35:21;;;;;;;12.85;8.93;;;13.20;99.90;;;;;;4993299;28;20073;-41
2022/05/24 00:37:48;;;;;;;10.85;7.45;;;13.20;99.90;;;;;;4974057;28;20050;-42
2022/05/24 00:40:32;;;;;;;11.35;8.23;;;13.20;99.90;;;;;;4992456;28;20061;-41
2022/05/24 00:43:02;;;;;;;11.15;7.72;;;13.20;99.90;;;;;;4987173;28;20159;-41
2022/05/24 00:45:36;;;;;;;12.20;8.02;;;13.10;99.90;;;;;;4989693;28;20054;-41
2022/05/24 00:48:06;;;;;;;14.65;7.35;;;13.20;99.90;;;;;;4981397;28;20065;-41
2022/05/24 00:50:38;;;;;;;13.65;7.35;;;13.20;99.90;;;;;;5001886;28;20109;-41
2022/05/24 00:53:06;;;;;;;;;;;13.10;99.90;;;;;;4980470;28;20494;-41
2022/05/24 00:55:51;;;;;;;7.65;6.03;;;13.10;99.90;;;;;;4971851;28;19930;-41
2022/05/24 00:58:37;;;;;;;11.13;6.25;;;13.10;99.90;;;;;;4957541;28;20194;-40
2022/05/24 01:01:31;;;;;;;9.73;6.28;;;13.00;99.90;;;;;;4973428;28;20494;-41
2022/05/24 01:03:57;;;;;;;11.18;6.38;;;13.00;99.90;;;;;;4972724;28;20606;-41
2022/05/24 01:06:23;;;;;;;8.45;6.22;;;13.00;99.90;;;;;;4961549;28;20051;-41
2022/05/24 01:08:49;;;;;;;9.13;6.28;;;13.00;99.90;;;;;;4967964;28;20046;-41
2022/05/24 01:11:16;;;;;;;8.07;5.65;;;12.90;99.90;;;;;;4968505;28;20490;-41
2022/05/24 01:13:43;;;;;;;10.63;5.60;;;12.90;99.90;;;;;;4964427;28;20078;-41
2022/05/24 01:16:10;;;;;;;8.35;5.78;;;12.80;99.90;;;;;;4966196;28;20066;-41
2022/05/24 01:18:36;;;;;;;9.40;5.00;;;12.80;99.90;;;;;;4965336;28;20125;-41
2022/05/24 01:21:08;;;;;;;6.90;4.85;;;12.80;99.90;;;;;;4973731;28;20490;-41
2022/05/24 01:23:56;;;;;;;8.77;4.78;;;12.70;99.90;;;;;;4972223;28;20078;-41
2022/05/24 01:26:57;;;;;;;8.77;5.50;;;12.70;99.90;;;;;;4950889;28;20055;-41
2022/05/24 01:29:25;;;;;;;11.73;6.17;;;12.60;99.90;;;;;;4972244;28;20046;-41
2022/05/24 01:37:22;;;;;;;8.70;6.07;;;12.50;99.90;;;;;;4956938;28;20097;-41
2022/05/24 01:39:52;;;;;;;9.15;6.50;;;12.40;99.90;;;;;;4972519;28;20054;-41
2022/05/24 01:42:20;;;;;;;10.60;6.68;;;12.40;99.90;;;;;;4963776;28;20445;-41
2022/05/24 01:45:11;;;;;;;13.05;6.75;;;12.40;99.90;;;;;;4972595;28;20042;-41
2022/05/24 01:47:40;;;;;;;11.43;7.45;;;12.40;99.90;;;;;;4964611;28;20053;-41
2022/05/24 01:50:14;;;;;;;10.20;6.75;;;12.30;99.90;;;;;;5012077;28;20073;-41
2022/05/24 01:52:48;;;;;;;10.65;6.78;;;12.30;99.90;;;;;;4998288;28;20557;-41
2022/05/24 01:55:20;;;;;;;9.52;7.00;;;12.30;99.90;;;;;;4960020;28;20695;-41
2022/05/24 01:57:51;;;;;;;12.48;6.95;;;12.20;99.90;;;;;;4956343;28;20043;-41
2022/05/24 02:00:18;;;;;;;8.80;6.75;;;12.20;99.90;;;;;;4972494;28;20469;-41
2022/05/24 02:02:45;;;;;;;11.43;7.15;;;12.20;99.90;;;;;;4972337;28;20046;-41
2022/05/24 02:05:12;;;;;;;10.98;7.63;;;12.10;99.90;;;;;;4972722;28;20049;-41
2022/05/24 02:07:39;;;;;;;9.85;6.88;;;12.10;99.90;;;;;;4955546;28;20046;-41
2022/05/24 02:10:07;;;;;;;11.23;7.10;;;12.10;99.90;;;;;;4972419;28;20074;-41
2022/05/24 02:12:44;;;;;;;11.65;7.43;;;12.00;99.90;;;;;;4978223;28;20517;-41
2022/05/24 02:15:14;;;;;;;11.85;8.35;;;12.00;99.90;;;;;;4972691;28;20050;-41
2022/05/24 02:18:03;;;;;;;11.52;8.32;;;12.00;99.90;;;;;;4956236;28;20050;-41
2022/05/24 02:20:32;;;;;;;13.18;8.52;;;12.00;99.90;;;;;;4967424;28;20063;-41
2022/05/24 02:22:58;;;;;;;14.98;8.15;;;12.00;99.90;;;;;;4970535;28;20086;-41
2022/05/24 02:25:35;;;;;;;12.95;8.90;;;12.10;99.90;;;;;;4971749;28;20801;-41
2022/05/24 02:28:02;;;;;;;11.60;8.18;;;12.10;99.90;;;;;;4955880;28;20058;-41
2022/05/24 02:30:30;;;;;;;13.40;8.80;;;12.10;99.90;;;;;;4970280;28;20061;-41
2022/05/24 02:32:56;;;;;;;11.25;8.50;;;12.10;99.90;;;;;;4971530;28;20058;-41
2022/05/24 02:35:22;;;;;;;10.63;8.68;;;12.20;99.90;;;;;;4972250;28;20055;-41
2022/05/24 02:37:48;;;;;;;12.60;8.70;;;12.20;99.90;;;;;;4956734;28;20130;-41
2022/05/24 02:42:58;;;;;;;11.52;9.00;;;12.20;99.90;;;;;;4965480;28;20104;-41
2022/05/24 02:45:24;;;;;;;13.60;9.63;;;12.20;99.90;;;;;;4971382;28;20517;-41
2022/05/24 02:47:50;;;;;;;14.95;9.65;;;12.20;99.90;;;;;;4968801;28;20045;-42
2022/05/24 02:50:16;;;;;;;13.88;9.50;;;12.30;99.90;;;;;;5007325;28;20452;-41
2022/05/24 02:52:42;;;;;;;12.82;8.85;;;12.30;99.90;;;;;;4990353;28;20534;-41
2022/05/24 02:55:10;;;;;;;15.60;10.25;;;12.30;99.90;;;;;;4990939;28;20141;-41
2022/05/24 02:57:37;;;;;;;12.70;9.85;;;12.30;99.90;;;;;;4975006;28;20049;-41
2022/05/24 03:00:11;;;;;;;15.57;9.90;;;12.30;99.90;;;;;;4989575;28;20050;-41
2022/05/24 03:02:38;;;;;;;17.33;9.23;;;12.40;99.90;;;;;;4988912;28;20063;-41
2022/05/24 03:05:06;;;;;;;15.70;10.07;;;12.40;99.90;;;;;;4971481;28;20077;-41
2022/05/24 03:10:16;;;;;;;17.23;11.48;;;12.40;99.90;;;;;;4991069;28;20062;-41
2022/05/24 03:15:26;;;;;;;14.55;9.82;;;12.40;99.90;;;;;;4981518;28;20078;-41
2022/05/24 03:17:52;;;;;;;15.40;11.45;;;12.50;99.90;;;;;;4953278;28;20042;-41
2022/05/24 03:20:18;;;;;;;20.25;12.38;;;12.50;99.90;;;;;;4971619;28;20050;-41
2022/05/24 03:22:43;;;;;;;15.98;11.65;;;12.50;99.90;;;;;;4977491;28;20092;-41
2022/05/24 03:25:09;;;;;;;15.43;11.20;;;12.50;99.90;;;;;;5003702;28;20045;-41
2022/05/24 03:27:36;;;;;;;15.52;11.48;;;12.50;99.90;;;;;;4973651;28;20085;-42
2022/05/24 03:30:03;;;;;;;15.45;12.55;;;12.50;99.90;;;;;;4990791;28;20101;-41
2022/05/24 03:32:28;;;;;;;17.10;12.20;;;12.50;99.90;;;;;;4989294;28;20409;-42
2022/05/24 03:34:54;;;;;;;16.00;11.30;;;12.50;99.90;;;;;;4988917;28;20046;-41
2022/05/24 03:37:20;;;;;;;16.50;12.90;;;12.50;99.90;;;;;;4975076;28;20178;-41
2022/05/24 03:39:45;;;;;;;16.75;12.93;;;12.50;99.90;;;;;;4989015;28;20529;-41
2022/05/24 03:42:11;;;;;;;18.67;14.20;;;12.50;99.90;;;;;;4981317;28;20072;-42
2022/05/24 03:44:37;;;;;;;16.27;13.38;;;12.50;99.90;;;;;;4989647;28;20110;-42
2022/05/24 03:47:04;;;;;;;20.92;14.48;;;12.60;99.90;;;;;;4974308;28;20046;-42
2022/05/24 03:49:30;;;;;;;22.25;15.68;;;12.60;99.90;;;;;;4989617;28;20061;-41
2022/05/24 03:51:55;;;;;;;21.85;16.77;;;12.60;99.90;;;;;;4990328;28;20041;-42
2022/05/24 03:54:22;;;;;;;24.38;17.25;;;12.60;99.90;;;;;;4989450;28;20141;-42
2022/05/24 03:59:32;;;;;;;27.80;19.08;;;12.60;99.90;;;;;;4993836;28;20077;-42
2022/05/24 04:01:58;;;;;;;26.48;18.95;;;12.70;99.90;;;;;;4990056;28;20042;-42
2022/05/24 04:04:24;;;;;;;25.73;19.35;;;12.70;99.90;;;;;;4989113;28;20529;-41
2022/05/24 04:06:49;;;;;;;27.50;19.77;;;12.70;99.90;;;;;;4970080;28;20042;-41
2022/05/24 04:09:15;;;;;;;33.30;22.42;;;12.70;99.90;;;;;;4985742;28;20379;-42
2022/05/24 04:11:42;;;;;;;31.98;23.05;;;12.80;99.90;;;;;;4992569;28;20050;-41
2022/05/24 04:14:07;;;;;;;31.13;23.50;;;12.80;99.90;;;;;;4992431;28;21416;-41
2022/05/24 04:16:33;;;;;;;29.38;21.45;;;12.80;99.90;;;;;;4971162;28;20050;-42
2022/05/24 04:18:59;;;;;;;32.88;23.75;;;12.90;99.90;;;;;;4985315;28;20047;-41
2022/05/24 04:21:24;;;;;;;34.30;24.33;;;12.90;99.90;;;;;;4989626;28;20125;-42
2022/05/24 04:23:50;;;;;;;30.67;23.23;;;12.80;99.90;;;;;;4986711;28;20050;-41
2022/05/24 04:26:16;;;;;;;33.75;22.90;;;13.00;99.90;;;;;;4978873;28;20081;-42
2022/05/24 04:28:42;;;;;;;31.13;21.88;;;13.00;99.90;;;;;;4984350;28;20513;-41
2022/05/24 04:31:08;;;;;;;32.63;21.83;;;13.00;99.90;;;;;;4993262;28;20061;-41
2022/05/24 04:33:33;;;;;;;29.05;20.05;;;13.00;99.90;;;;;;4992717;28;20058;-41
2022/05/24 04:35:59;;;;;;;26.75;20.50;;;13.00;99.90;;;;;;4993950;28;20134;-42
2022/05/24 04:38:25;;;;;;;25.98;19.58;;;13.20;99.90;;;;;;4978303;28;20077;-42
2022/05/24 04:43:36;;;;;;;25.40;18.02;;;13.10;99.90;;;;;;4993579;28;20077;-41
2022/05/24 04:46:03;;;;;;;23.15;17.00;;;13.20;99.90;;;;;;4993540;28;20398;-41
2022/05/24 04:48:29;;;;;;;24.08;15.75;;;13.10;99.90;;;;;;4977355;28;20046;-41
2022/05/24 04:50:56;;;;;;;19.92;14.40;;;13.10;99.90;;;;;;4993028;28;20046;-42
2022/05/24 04:53:24;;;;;;;17.25;13.82;;;13.20;99.90;;;;;;5003523;28;20045;-41
2022/05/24 04:55:50;;;;;;;18.50;13.73;;;13.20;99.90;;;;;;5002291;28;20116;-41
2022/05/24 04:58:19;;;;;;;17.50;12.10;;;13.20;99.90;;;;;;4966829;28;20133;-42
2022/05/24 05:00:46;;;;;;;18.60;12.45;;;13.20;99.90;;;;;;4971302;28;20074;-41
2022/05/24 05:03:14;;;;;;;17.27;11.45;;;13.20;99.90;;;;;;4968781;28;20051;-41
2022/05/24 05:05:40;;;;;;;18.38;10.93;;;13.20;99.90;;;;;;4970023;28;20412;-42
2022/05/24 05:08:07;;;;;;;19.85;11.40;;;13.20;99.90;;;;;;4957277;28;20046;-42
2022/05/24 05:10:34;;;;;;;13.15;9.50;;;13.20;99.90;;;;;;4969985;28;20114;-42
2022/05/24 05:13:01;;;;;;;18.70;10.27;;;13.30;99.90;;;;;;4968785;28;20043;-42
2022/05/24 05:15:27;;;;;;;18.27;10.35;;;13.30;99.90;;;;;;4972415;28;20509;-41
2022/05/24 05:18:07;;;;;;;15.13;10.02;;;13.30;99.90;;;;;;4970881;28;20508;-42
2022/05/24 05:20:39;;;;;;;18.08;11.18;;;13.30;99.90;;;;;;4996157;28;20042;-41
2022/05/24 05:23:16;;;;;;;19.38;10.93;;;13.30;99.90;;;;;;5002208;28;20500;-42
2022/05/24 05:25:43;;;;;;;19.77;11.20;;;13.40;99.90;;;;;;5009504;28;20054;-41
2022/05/24 05:28:10;;;;;;;24.17;12.27;;;13.40;99.90;;;;;;4976258;28;20050;-42
2022/05/24 05:33:20;;;;;;;18.73;12.07;;;13.40;99.90;;;;;;4991546;28;20469;-41
2022/05/24 05:35:46;;;;;;;18.85;11.68;;;13.50;99.90;;;;;;4991200;28;20050;-41
2022/05/24 05:38:13;;;;;;;19.65;12.60;;;13.50;99.90;;;;;;4977559;28;20089;-41
2022/05/24 05:40:39;;;;;;;21.17;12.93;;;13.50;99.90;;;;;;4988457;28;20141;-41
2022/05/24 05:43:05;;;;;;;17.35;12.43;;;13.50;99.90;;;;;;4985987;28;20042;-41
2022/05/24 05:45:31;;;;;;;20.08;12.82;;;13.60;99.90;;;;;;4991206;28;20046;-42
2022/05/24 05:47:56;;;;;;;20.08;13.43;;;13.50;99.90;;;;;;4983558;28;20042;-42
2022/05/24 05:50:22;;;;;;;20.70;13.25;;;13.60;99.90;;;;;;4998834;28;20046;-42
2022/05/24 05:52:50;;;;;;;23.55;13.80;;;13.60;99.90;;;;;;4996103;28;20605;-42
2022/05/24 05:55:15;;;;;;;20.23;13.55;;;13.70;99.90;;;;;;4972801;28;20420;-41
2022/05/24 05:57:41;;;;;;;24.30;14.30;;;13.60;99.90;;;;;;4956465;28;20054;-42
2022/05/24 06:00:08;;;;;;;19.85;13.48;;;13.60;99.90;;;;;;4972678;28;20121;-41
2022/05/24 06:02:35;;;;;;;19.00;13.68;;;13.60;99.90;;;;;;4971726;28;20141;-41
2022/05/24 06:05:01;;;;;;;20.10;15.10;;;13.60;99.90;;;;;;4972133;28;20494;-41
2022/05/24 06:07:27;;;;;;;21.65;15.45;;;13.60;99.90;;;;;;4961289;28;20045;-42
2022/05/24 06:09:53;;;;;;;24.98;16.13;;;13.60;99.90;;;;;;4992521;28;20134;-41
2022/05/24 06:12:19;;;;;;;21.58;15.50;;;13.60;99.90;;;;;;4988219;28;20244;-42
2022/05/24 06:14:45;;;;;;;25.25;16.45;;;13.50;99.90;;;;;;4972223;28;20043;-41
2022/05/24 06:17:11;;;;;;;24.08;16.30;;;13.60;99.90;;;;;;4958148;28;20050;-42
2022/05/24 06:19:37;;;;;;;24.92;15.57;;;13.60;99.90;;;;;;5011493;28;20042;-41
2022/05/24 06:22:03;;;;;;;25.15;17.63;;;13.60;99.90;;;;;;4997755;28;20502;-41
2022/05/24 06:24:29;;;;;;;24.13;17.00;;;13.70;99.90;;;;;;4982965;28;20042;-41
2022/05/24 06:26:56;;;;;;;24.80;18.08;;;13.60;99.90;;;;;;4961515;28;20050;-42
2022/05/24 06:29:23;;;;;;;26.83;17.45;;;13.60;99.90;;;;;;4970139;28;20039;-41
2022/05/24 06:31:49;;;;;;;25.52;16.15;;;13.60;99.90;;;;;;4969440;28;20509;-42
2022/05/24 06:34:15;;;;;;;24.10;15.20;;;13.70;99.90;;;;;;4988094;28;20038;-41
2022/05/24 06:36:41;;;;;;;20.85;14.10;;;13.60;99.90;;;;;;4977411;28;20601;-41
2022/05/24 06:39:07;;;;;;;18.77;12.32;;;13.70;99.90;;;;;;4989347;28;20086;-41
2022/05/24 06:41:33;;;;;;;16.75;12.27;;;13.60;99.90;;;;;;4990012;28;20050;-42
2022/05/24 06:43:59;;;;;;;18.52;11.55;;;13.60;99.90;;;;;;4988991;28;20046;-41
2022/05/24 06:46:25;;;;;;;15.55;11.43;;;13.60;99.90;;;;;;4977317;28;20522;-42
2022/05/24 06:48:51;;;;;;;16.38;11.25;;;13.60;99.90;;;;;;4986134;28;20042;-41
2022/05/24 06:51:20;;;;;;;14.18;9.65;;;13.70;99.90;;;;;;4989490;28;20112;-42
2022/05/24 06:53:48;;;;;;;19.80;11.05;;;13.70;99.90;;;;;;4988529;28;20398;-42
2022/05/24 06:56:14;;;;;;;19.23;10.13;;;13.70;99.90;;;;;;4981724;28;20046;-42
2022/05/24 06:58:40;;;;;;;17.58;10.27;;;13.70;99.90;;;;;;4983490;28;20046;-41
2022/05/24 07:03:51;;;;;;;15.43;8.55;;;13.80;99.90;;;;;;4989172;28;20116;-41
2022/05/24 07:06:18;;;;;;;17.27;8.07;;;13.80;99.90;;;;;;4980144;28;20074;-42
2022/05/24 07:08:45;;;;;;;13.80;7.60;;;13.90;99.90;;;;;;4979129;28;20473;-41
2022/05/24 07:11:12;;;;;;;15.23;8.07;;;13.90;99.90;;;;;;4975959;28;20046;-42
2022/05/24 07:13:39;;;;;;;14.35;8.32;;;14.00;99.90;;;;;;4961904;28;20057;-41
2022/05/24 07:16:07;;;;;;;17.52;7.65;;;14.00;99.90;;;;;;4962968;28;20414;-42
2022/05/24 07:18:33;;;;;;;14.05;7.20;;;13.80;99.90;;;;;;4952781;28;20060;-42
2022/05/24 07:20:59;;;;;;;15.80;8.40;;;14.00;99.90;;;;;;4947741;28;20050;-41
2022/05/24 07:23:24;;;;;;;12.90;8.15;;;14.00;99.90;;;;;;4953170;28;20051;-42
2022/05/24 07:25:51;;;;;;;14.43;7.22;;;14.10;99.90;;;;;;4964268;28;20429;-42
2022/05/24 07:28:18;;;;;;;14.45;8.05;;;14.10;99.90;;;;;;4945359;28;20065;-41
2022/05/24 07:30:46;;;;;;;11.68;7.32;;;14.10;99.90;;;;;;4965172;28;20058;-42
2022/05/24 07:33:13;;;;;;;9.95;6.63;;;14.10;99.90;;;;;;4965816;28;20065;-42
2022/05/24 07:35:40;;;;;;;13.10;6.03;;;14.10;99.90;;;;;;4959231;28;20047;-42
2022/05/24 07:38:08;;;;;;;13.43;6.70;;;14.10;99.90;;;;;;4939736;28;20498;-42
2022/05/24 07:46:08;;;;;;;11.75;5.78;;;14.00;99.90;;;;;;4954554;28;20059;-42
2022/05/24 07:48:34;;;;;;;10.30;6.55;;;14.00;99.90;;;;;;4945452;28;20050;-42
2022/05/24 07:51:00;;;;;;;12.85;5.65;;;14.10;99.90;;;;;;4956825;28;20580;-42
2022/05/24 07:53:26;;;;;;;10.48;5.88;;;14.10;99.90;;;;;;4961724;28;20059;-41
2022/05/24 07:55:56;;;;;;;10.68;5.95;;;14.10;99.90;;;;;;4936418;28;20100;-42
2022/05/24 07:58:22;;;;;;;11.43;5.95;;;14.10;99.90;;;;;;4939208;28;20178;-42
2022/05/24 08:00:48;;;;;;;9.63;6.00;;;14.10;99.90;;;;;;4964851;28;20061;-42
2022/05/24 08:03:14;;;;;;;10.23;5.75;;;14.00;99.90;;;;;;4963145;28;20054;-42
2022/05/24 08:05:40;;;;;;;11.80;5.82;;;14.00;99.90;;;;;;4963727;28;20165;-42
2022/05/24 08:08:08;;;;;;;7.05;5.63;;;14.00;99.90;;;;;;4945445;28;20059;-42
2022/05/24 08:10:35;;;;;;;7.78;5.38;;;14.00;99.90;;;;;;4955054;28;20059;-42
2022/05/24 08:13:05;;;;;;;9.75;5.20;;;14.00;99.90;;;;;;4951775;28;20049;-42
2022/05/24 08:15:31;;;;;;;9.32;4.82;;;14.00;99.90;;;;;;4956828;28;20051;-42
2022/05/24 08:17:57;;;;;;;9.07;5.22;;;13.90;99.90;;;;;;4938560;28;20226;-42
2022/05/24 08:20:23;;;;;;;10.13;5.60;;;14.00;99.90;;;;;;4967523;28;20046;-42
2022/05/24 08:22:48;;;;;;;10.20;5.50;;;14.00;99.90;;;;;;4958436;28;20849;-42
2022/05/24 08:25:15;;;;;;;11.13;5.72;;;14.00;99.90;;;;;;4949581;28;20084;-42
2022/05/24 08:27:40;;;;;;;7.78;5.82;;;14.00;99.90;;;;;;4938200;28;20083;-42
2022/05/24 08:30:08;;;;;;;9.70;6.40;;;14.10;99.90;;;;;;4962271;28;20121;-42
2022/05/24 08:32:34;;;;;;;10.32;5.75;;;14.10;99.90;;;;;;4959016;28;20046;-41
2022/05/24 08:35:00;;;;;;;8.85;5.82;;;14.10;99.90;;;;;;4966718;28;20143;-41
2022/05/24 08:37:26;;;;;;;12.68;5.45;;;14.10;99.90;;;;;;4944827;28;20468;-41
2022/05/24 08:39:57;;;;;;;13.20;6.03;;;14.10;99.90;;;;;;4964334;28;20058;-41
2022/05/24 08:42:41;;;;;;;9.65;5.90;;;14.20;99.90;;;;;;4961133;28;20101;-41
2022/05/24 08:48:22;;;;;;;12.25;6.35;;;14.30;99.90;;;;;;4939965;28;20088;-41
2022/05/24 08:50:51;;;;;;;11.70;7.32;;;14.20;99.90;;;;;;4964418;28;20792;-41
2022/05/24 08:53:32;;;;;;;12.82;7.50;;;14.30;99.90;;;;;;4961808;28;20790;-44
2022/05/24 08:55:58;;;;;;;11.98;7.07;;;14.40;99.90;;;;;;4959741;28;20057;-41
2022/05/24 08:58:34;;;;;;;11.95;7.22;;;14.40;99.90;;;;;;4949979;28;20073;-43
2022/05/24 09:01:01;;;;;;;12.00;7.53;;;14.40;99.90;;;;;;4958134;28;20118;-41
2022/05/24 09:03:27;;;;;;;12.43;7.00;;;14.50;99.90;;;;;;4960455;28;20057;-41
2022/05/24 09:06:08;;;;;;;13.13;6.45;;;14.40;99.90;;;;;;4957394;28;20050;-41
2022/05/24 09:09:11;;;;;;;8.10;4.20;;;14.30;99.90;;;;;;4953062;28;20146;-41
2022/05/24 09:11:52;;;;;;;4.68;1.83;;;14.20;99.90;;;;;;4960098;28;20058;-40
2022/05/24 09:14:25;;;;;;;5.60;1.95;;;13.90;99.90;;;;;;4949108;28;20371;-41
2022/05/24 09:17:29;;;;;;;4.97;2.28;;;13.70;99.90;;;;;;4930411;28;20141;-41
2022/05/24 09:19:54;;;;;;;2.92;1.20;;;13.50;99.90;;;;;;4948108;28;20059;-41
2022/05/24 09:22:22;;;;;;;1.90;1.20;;;13.40;99.90;;;;;;4950544;28;20062;-41
2022/05/24 09:24:56;;;;;;;4.28;1.17;;;13.30;99.90;;;;;;4970204;28;20066;-41
2022/05/24 09:27:28;;;;;;;2.47;1.23;;;13.30;99.90;;;;;;4948606;28;20054;-41
2022/05/24 09:30:20;;;;;;;3.30;1.20;;;13.20;99.90;;;;;;4970507;28;20857;-41
2022/05/24 09:32:48;;;;;;;2.97;1.48;;;13.20;99.90;;;;;;4968909;28;20088;-41
2022/05/24 09:35:19;;;;;;;1.90;1.50;;;13.20;99.90;;;;;;4970851;28;20054;-41
2022/05/24 09:38:14;;;;;;;1.63;1.53;;;13.30;99.90;;;;;;4952585;28;20056;-41
2022/05/24 09:40:50;;;;;;;5.72;3.20;;;13.40;99.90;;;;;;4968558;28;20113;-41
2022/05/24 09:43:23;;;;;;;4.85;2.00;;;13.50;99.90;;;;;;4966859;28;20074;-41
2022/05/24 09:45:57;;;;;;;5.10;1.90;;;13.60;99.90;;;;;;4969343;28;20061;-41
2022/05/24 09:48:27;;;;;;;5.10;2.35;;;13.60;99.90;;;;;;4952838;28;20508;-41
2022/05/24 09:50:55;;;;;;;3.75;2.00;;;13.70;99.90;;;;;;4969631;28;20066;-41
2022/05/24 09:53:26;;;;;;;4.03;1.98;;;13.70;99.90;;;;;;4966806;28;20152;-41
2022/05/24 09:56:03;;;;;;;5.57;2.30;;;13.80;99.90;;;;;;4970101;28;20122;-42
2022/05/24 09:58:31;;;;;;;4.05;2.30;;;13.70;99.90;;;;;;4935167;28;20050;-41
2022/05/24 10:01:00;;;;;;;2.58;1.70;;;13.70;99.90;;;;;;4939163;28;20702;-41
2022/05/24 10:03:32;;;;;;;4.28;2.10;;;13.80;99.90;;;;;;4940272;28;20059;-41
2022/05/24 10:06:31;;;;;;;7.30;5.05;;;13.80;99.90;;;;;;4948854;28;20851;-41
2022/05/24 10:08:59;;;;;;;9.25;5.20;;;13.90;99.90;;;;;;4948180;28;20120;-41
2022/05/24 10:11:40;;;;;;;14.07;6.57;;;14.00;99.90;;;;;;4935300;28;20086;-41
2022/05/24 10:14:12;;;;;;;2.88;2.10;;;14.00;99.90;;;;;;4934521;28;20153;-41
2022/05/24 10:16:37;;;;;;;;;;;14.10;99.90;;;;;;4929389;28;20567;-41
2022/05/24 10:19:28;;;;;;;7.15;3.30;;;14.10;99.90;;;;;;4939560;28;19930;-41
2022/05/24 10:22:15;;;;;;;5.03;2.90;;;14.20;99.90;;;;;;4941027;28;20122;-41
2022/05/24 10:25:04;;;;;;;3.92;2.90;;;14.20;99.90;;;;;;4937785;28;20062;-41
2022/05/24 10:27:51;;;;;;;6.88;2.88;;;14.30;99.90;;;;;;4920916;28;20259;-42
2022/05/24 10:30:27;;;;;;;7.03;4.00;;;14.30;99.90;;;;;;4946592;28;20054;-42
2022/05/24 10:38:17;;;;;;;5.25;3.10;;;14.40;99.90;;;;;;4937177;28;20133;-41
2022/05/24 10:39:27;;;;;;;5.07;3.08;;;14.30;99.90;;;;;;4949130;28;20073;-41
2022/05/24 10:42:11;;;;;;;5.57;3.17;;;14.30;99.90;;;;;;4942204;28;20054;-41
2022/05/24 10:44:49;;;;;;;5.38;2.38;;;14.30;99.90;;;;;;4947210;28;20745;-41
2022/05/24 10:47:34;;;;;;;6.05;2.60;;;14.20;99.90;;;;;;4926607;28;20506;-41
2022/05/24 10:50:06;;;;;;;5.57;2.67;;;14.30;99.90;;;;;;4938090;28;20055;-41
2022/05/24 10:52:50;;;;;;;2.95;1.77;;;14.30;99.90;;;;;;4940547;28;20047;-41
2022/05/24 10:55:28;;;;;;;3.53;1.90;;;14.40;99.90;;;;;;4949133;28;20062;-41
2022/05/24 10:57:58;;;;;;;3.42;1.80;;;14.40;99.90;;;;;;4930029;28;20745;-41
2022/05/24 11:00:40;;;;;;;3.30;2.05;;;14.30;99.90;;;;;;4944184;28;20050;-41
2022/05/24 11:03:16;;;;;;;5.00;2.40;;;14.30;99.90;;;;;;4938721;28;20757;-41
2022/05/24 11:05:47;;;;;;;3.28;2.38;;;14.30;99.90;;;;;;4933715;28;20109;-41
2022/05/24 11:08:21;;;;;;;4.15;2.72;;;14.20;99.90;;;;;;4922317;28;20078;-41
2022/05/24 11:10:49;;;;;;;5.45;2.80;;;14.20;99.90;;;;;;4937202;28;20057;-41
2022/05/24 11:13:27;;;;;;;4.60;2.60;;;14.30;99.90;;;;;;4930179;28;20070;-41
2022/05/24 11:16:03;;;;;;;4.68;2.60;;;14.30;99.90;;;;;;4937871;28;20050;-41
2022/05/24 11:18:29;;;;;;;6.55;3.33;;;14.30;99.90;;;;;;4942179;28;20074;-42
2022/05/24 11:21:23;;;;;;;9.02;3.10;;;14.30;99.90;;;;;;4971001;28;20589;-41
2022/05/24 11:24:03;;;;;;;6.40;2.67;;;14.20;99.90;;;;;;4967140;28;20046;-41
2022/05/24 11:26:32;;;;;;;5.15;2.28;;;14.00;99.90;;;;;;4956086;28;20150;-41
2022/05/24 11:29:14;;;;;;;4.53;2.30;;;13.80;99.90;;;;;;4966034;28;20735;-41
2022/05/24 11:31:50;;;;;;;4.18;1.52;;;13.70;99.90;;;;;;4966852;28;20084;-41
2022/05/24 11:34:21;;;;;;;2.78;1.63;;;13.60;99.90;;;;;;4967129;28;20077;-41
2022/05/24 11:37:20;;;;;;;3.47;1.90;;;13.60;99.90;;;;;;4952723;28;21244;-42
2022/05/24 11:39:47;;;;;;;4.75;1.77;;;13.70;99.90;;;;;;4965526;28;20278;-42
2022/05/24 11:42:44;;;;;;;3.28;1.80;;;13.70;99.90;;;;;;4963388;28;20046;-42
2022/05/24 11:45:34;;;;;;;2.15;1.30;;;13.80;99.90;;;;;;4968727;28;20623;-42
2022/05/24 11:48:06;;;;;;;3.00;1.38;;;13.90;99.90;;;;;;4953290;28;20054;-42
2022/05/24 11:50:31;;;;;;;2.85;1.42;;;13.90;99.90;;;;;;4968193;28;20120;-42
2022/05/24 11:53:15;;;;;;;2.97;1.15;;;13.90;99.90;;;;;;4964362;28;20440;-41
2022/05/24 11:55:53;;;;;;;4.57;0.80;;;13.90;99.90;;;;;;4968442;28;20058;-42
2022/05/24 11:58:19;;;;;;;2.08;0.45;;;14.00;99.90;;;;;;4950671;28;20050;-41
2022/05/24 12:01:29;;;;;;;4.72;1.10;;;13.90;99.90;;;;;;4966348;28;20065;-42
2022/05/24 12:07:59;;;;;;;3.08;1.15;;;13.80;99.90;;;;;;4954102;28;21108;-42
2022/05/24 12:10:26;;;;;;;5.40;1.27;;;13.70;99.90;;;;;;4969712;28;20073;-42
2022/05/24 12:13:13;;;;;;;4.82;1.50;;;13.80;99.90;;;;;;4971598;28;20619;-42
2022/05/24 12:15:40;;;;;;;4.80;1.40;;;13.90;99.90;;;;;;4973751;28;20136;-42
2022/05/24 12:18:06;;;;;;;5.60;1.20;;;14.00;99.90;;;;;;4953956;28;20050;-41
2022/05/24 12:20:34;;;;;;;8.10;1.17;;;14.10;99.90;;;;;;4972766;28;20831;-41
2022/05/24 12:23:32;;;;;;;5.32;1.38;;;14.10;99.90;;;;;;4969894;28;20101;-41
2022/05/24 12:26:12;;;;;;;4.40;0.95;;;14.20;99.90;;;;;;4972066;28;21200;-41
2022/05/24 12:28:38;;;;;;;1.92;0.88;;;14.20;99.90;;;;;;4961644;28;20179;-42
2022/05/24 12:31:12;;;;;;;6.10;1.13;;;14.20;99.90;;;;;;4970796;28;20557;-41
2022/05/24 12:33:43;;;;;;;4.60;1.08;;;14.20;99.90;;;;;;4971072;28;20839;-41
2022/05/24 12:36:54;;;;;;;4.03;1.00;;;14.20;99.90;;;;;;4967727;28;20089;-41
2022/05/24 12:39:21;;;;;;;6.07;1.20;;;14.20;99.90;;;;;;4984194;28;20106;-42
2022/05/24 12:41:55;;;;;;;4.53;0.93;;;14.30;99.90;;;;;;4982180;28;20053;-41
2022/05/24 12:44:38;;;;;;;5.15;0.82;;;14.30;99.90;;;;;;4976865;28;20055;-41
2022/05/24 12:47:07;;;;;;;2.90;0.80;;;14.40;99.90;;;;;;4957657;28;20054;-43
2022/05/24 12:49:50;;;;;;;4.10;0.98;;;14.50;99.90;;;;;;4973086;28;20083;-41
2022/05/24 12:52:22;;;;;;;4.13;1.10;;;14.60;99.90;;;;;;4975194;28;20049;-41
2022/05/24 12:54:54;;;;;;;4.43;1.38;;;14.70;99.90;;;;;;4976868;28;20050;-41
2022/05/24 12:57:38;;;;;;;3.00;0.82;;;14.70;99.90;;;;;;4959918;28;20501;-41
2022/05/24 13:00:12;;;;;;;4.60;1.05;;;14.90;99.90;;;;;;4977601;28;20068;-41
2022/05/24 13:02:48;;;;;;;3.20;1.30;;;15.00;99.90;;;;;;4976948;28;20050;-41
2022/05/24 13:05:28;;;;;;;2.10;0.80;;;15.10;99.90;;;;;;4978061;28;20167;-41
2022/05/24 13:07:54;;;;;;;3.13;0.90;;;15.20;99.90;;;;;;4958010;28;20066;-42
2022/05/24 13:10:23;;;;;;;3.78;0.88;;;15.30;99.90;;;;;;4977402;28;20058;-42
2022/05/24 13:13:05;;;;;;;3.85;0.55;;;15.30;99.90;;;;;;4972558;28;20047;-41
2022/05/24 13:15:44;;;;;;;3.58;0.60;;;15.40;99.90;;;;;;4975009;28;20050;-41
2022/05/24 13:18:16;;;;;;;3.45;0.50;;;15.50;99.90;;;;;;4959582;28;20065;-42
2022/05/24 13:20:54;;;;;;;2.28;0.55;;;15.50;99.90;;;;;;4975730;28;20594;-41
2022/05/24 13:23:27;;;;;;;1.80;0.28;;;15.50;99.90;;;;;;4957013;28;20051;-41
2022/05/24 13:26:17;;;;;;;2.65;0.57;;;15.60;99.90;;;;;;4974775;28;20143;-41
2022/05/24 13:28:50;;;;;;;1.30;0.40;;;15.70;99.90;;;;;;4972104;28;20043;-41
2022/05/24 13:34:26;;;;;;;2.33;0.50;;;15.70;99.90;;;;;;4972283;28;20132;-41
2022/05/24 13:36:54;;;;;;;2.33;0.50;;;15.80;99.90;;;;;;4959651;28;20046;-41
2022/05/24 13:39:39;;;;;;;1.40;0.43;;;15.80;99.90;;;;;;4976351;28;20205;-41
2022/05/24 13:42:30;;;;;;;3.92;0.60;;;15.90;99.90;;;;;;4974307;28;20060;-41